sensor_id;sensor_type;location;lat;lon;timestamp;temperature;humidity
21459;DHT22;10891;49.350;19.386;2023-03-01T00:02:21;-5.50;99.90
21459;DHT22;10891;49.350;19.386;2023-03-01T00:04:49;-5.60;99.90
21459;DHT22;10891;49.350;19.386;2023-03-01T00:07:16;-5.60;99.90
21459;DHT22;10891;49.350;19.386;2023-03-01T00:09:43;-5.60;99.90
21459;DHT22;10891;49.350;19.386;2023-03-01T00:12:12;-5.60;99.90
21459;DHT22;10891;49.350;19.386;2023-03-01T00:14:39;-5.60;99.90
21459;DHT22;10891;49.350;19.386;2023-03-01T00:17:06;-5.60;99.90
21459;DHT22;10891;49.350;19.386;2023-03-01T00:19:33;-5.60;99.90
21459;DHT22;10891;49.350;19.386;2023-03-01T00:22:00;-5.60;99.90
21459;DHT22;10891;49.350;19.386;2023-03-01T00:24:27;-5.60;99.90
21459;DHT22;10891;49.350;19.386;2023-03-01T00:26:54;-5.60;99.90
21459;DHT22;10891;49.350;19.386;2023-03-01T00:29:23;-5.70;99.90
21459;DHT22;10891;49.350;19.386;2023-03-01T00:31:50;-5.70;99.90
21459;DHT22;10891;49.350;19.386;2023-03-01T00:34:17;-5.70;99.90
21459;DHT22;10891;49.350;19.386;2023-03-01T00:36:44;-5.70;99.90
21459;DHT22;10891;49.350;19.386;2023-03-01T00:39:13;-5.70;99.90
21459;DHT22;10891;49.350;19.386;2023-03-01T00:41:40;-5.80;99.90
21459;DHT22;10891;49.350;19.386;2023-03-01T00:44:07;-5.70;99.90
21459;DHT22;10891;49.350;19.386;2023-03-01T00:46:35;-5.80;99.90
21459;DHT22;10891;49.350;19.386;2023-03-01T00:49:02;-5.80;99.90
21459;DHT22;10891;49.350;19.386;2023-03-01T00:51:30;-5.80;99.90
21459;DHT22;10891;49.350;19.386;2023-03-01T00:53:58;-5.90;99.90
21459;DHT22;10891;49.350;19.386;2023-03-01T00:56:26;-5.80;99.90
21459;DHT22;10891;49.350;19.386;2023-03-01T00:58:53;-5.80;99.90
21459;DHT22;10891;49.350;19.386;2023-03-01T01:01:22;-5.80;99.90
21459;DHT22;10891;49.350;19.386;2023-03-01T01:03:52;-5.80;99.90
21459;DHT22;10891;49.350;19.386;2023-03-01T01:06:21;-5.80;99.90
21459;DHT22;10891;49.350;19.386;2023-03-01T01:08:49;-5.80;99.90
21459;DHT22;10891;49.350;19.386;2023-03-01T01:11:16;-5.90;99.90
21459;DHT22;10891;49.350;19.386;2023-03-01T01:13:45;-5.90;99.90
21459;DHT22;10891;49.350;19.386;2023-03-01T01:16:12;-5.90;99.90
21459;DHT22;10891;49.350;19.386;2023-03-01T01:18:39;-5.90;99.90
21459;DHT22;10891;49.350;19.386;2023-03-01T01:21:09;-5.90;99.90
21459;DHT22;10891;49.350;19.386;2023-03-01T01:23:37;-5.90;99.90
21459;DHT22;10891;49.350;19.386;2023-03-01T01:26:05;-5.90;99.90
21459;DHT22;10891;49.350;19.386;2023-03-01T01:28:33;-5.90;99.90
21459;DHT22;10891;49.350;19.386;2023-03-01T01:31:00;-5.90;99.90
21459;DHT22;10891;49.350;19.386;2023-03-01T01:33:27;-6.00;99.90
21459;DHT22;10891;49.350;19.386;2023-03-01T01:35:54;-6.00;99.90
21459;DHT22;10891;49.350;19.386;2023-03-01T01:38:22;-6.00;99.90
21459;DHT22;10891;49.350;19.386;2023-03-01T01:40:50;-6.00;99.90
21459;DHT22;10891;49.350;19.386;2023-03-01T01:43:23;-6.00;99.90
21459;DHT22;10891;49.350;19.386;2023-03-01T01:45:50;-6.00;99.90
21459;DHT22;10891;49.350;19.386;2023-03-01T01:48:19;-6.00;99.90
21459;DHT22;10891;49.350;19.386;2023-03-01T01:50:53;-6.00;99.90
21459;DHT22;10891;49.350;19.386;2023-03-01T01:53:24;-6.00;99.90
21459;DHT22;10891;49.350;19.386;2023-03-01T01:55:54;-6.10;99.90
21459;DHT22;10891;49.350;19.386;2023-03-01T01:58:22;-6.00;99.90
21459;DHT22;10891;49.350;19.386;2023-03-01T02:00:50;-6.10;99.90
21459;DHT22;10891;49.350;19.386;2023-03-01T02:03:20;-6.10;99.90
21459;DHT22;10891;49.350;19.386;2023-03-01T02:05:53;-6.10;99.90
21459;DHT22;10891;49.350;19.386;2023-03-01T02:08:26;-6.20;99.90
21459;DHT22;10891;49.350;19.386;2023-03-01T02:10:54;-6.20;99.90
21459;DHT22;10891;49.350;19.386;2023-03-01T02:13:21;-6.20;99.90
21459;DHT22;10891;49.350;19.386;2023-03-01T02:15:49;-6.20;99.90
21459;DHT22;10891;49.350;19.386;2023-03-01T02:18:18;-6.20;99.90
21459;DHT22;10891;49.350;19.386;2023-03-01T02:20:54;-6.20;99.90
21459;DHT22;10891;49.350;19.386;2023-03-01T02:23:27;-6.20;99.90
21459;DHT22;10891;49.350;19.386;2023-03-01T02:25:58;-6.20;99.90
21459;DHT22;10891;49.350;19.386;2023-03-01T02:28:34;-6.20;99.90
21459;DHT22;10891;49.350;19.386;2023-03-01T02:31:02;-6.20;99.90
21459;DHT22;10891;49.350;19.386;2023-03-01T02:33:47;-6.30;99.90
21459;DHT22;10891;49.350;19.386;2023-03-01T02:36:18;-6.30;99.90
21459;DHT22;10891;49.350;19.386;2023-03-01T02:38:47;-6.40;99.90
21459;DHT22;10891;49.350;19.386;2023-03-01T02:41:16;-6.50;99.90
21459;DHT22;10891;49.350;19.386;2023-03-01T02:43:45;-6.40;99.90
21459;DHT22;10891;49.350;19.386;2023-03-01T02:46:17;-6.40;99.90
21459;DHT22;10891;49.350;19.386;2023-03-01T02:48:45;-6.40;99.90
21459;DHT22;10891;49.350;19.386;2023-03-01T02:51:27;-6.40;99.90
21459;DHT22;10891;49.350;19.386;2023-03-01T02:54:08;-6.40;99.90
21459;DHT22;10891;49.350;19.386;2023-03-01T02:56:37;-6.40;99.90
21459;DHT22;10891;49.350;19.386;2023-03-01T02:59:05;-6.40;99.90
21459;DHT22;10891;49.350;19.386;2023-03-01T03:01:33;-6.50;99.90
21459;DHT22;10891;49.350;19.386;2023-03-01T03:04:04;-6.50;99.90
21459;DHT22;10891;49.350;19.386;2023-03-01T03:06:31;-6.50;99.90
21459;DHT22;10891;49.350;19.386;2023-03-01T03:08:58;-6.50;99.90
21459;DHT22;10891;49.350;19.386;2023-03-01T03:11:25;-6.50;99.90
21459;DHT22;10891;49.350;19.386;2023-03-01T03:13:52;-6.50;99.90
21459;DHT22;10891;49.350;19.386;2023-03-01T03:16:21;-6.50;99.90
21459;DHT22;10891;49.350;19.386;2023-03-01T03:18:48;-6.50;99.90
21459;DHT22;10891;49.350;19.386;2023-03-01T03:21:15;-6.50;99.90
21459;DHT22;10891;49.350;19.386;2023-03-01T03:23:42;-6.50;99.90
21459;DHT22;10891;49.350;19.386;2023-03-01T03:26:09;-6.50;99.90
21459;DHT22;10891;49.350;19.386;2023-03-01T03:28:39;-6.50;99.90
21459;DHT22;10891;49.350;19.386;2023-03-01T03:31:06;-6.50;99.90
21459;DHT22;10891;49.350;19.386;2023-03-01T03:33:35;-6.50;99.90
21459;DHT22;10891;49.350;19.386;2023-03-01T03:36:03;-6.60;99.90
21459;DHT22;10891;49.350;19.386;2023-03-01T03:38:30;-6.70;99.90
21459;DHT22;10891;49.350;19.386;2023-03-01T03:41:01;-6.80;99.90
21459;DHT22;10891;49.350;19.386;2023-03-01T03:43:30;-6.80;99.90
21459;DHT22;10891;49.350;19.386;2023-03-01T03:45:57;-6.80;99.90
21459;DHT22;10891;49.350;19.386;2023-03-01T03:48:25;-6.70;99.90
21459;DHT22;10891;49.350;19.386;2023-03-01T03:50:55;-6.70;99.90
21459;DHT22;10891;49.350;19.386;2023-03-01T03:53:24;-6.70;99.90
21459;DHT22;10891;49.350;19.386;2023-03-01T03:55:52;-6.70;99.90
21459;DHT22;10891;49.350;19.386;2023-03-01T03:58:21;-6.80;99.90
21459;DHT22;10891;49.350;19.386;2023-03-01T04:00:49;-6.80;99.90
21459;DHT22;10891;49.350;19.386;2023-03-01T04:03:19;-6.80;99.90
21459;DHT22;10891;49.350;19.386;2023-03-01T04:05:47;-6.80;99.90
21459;DHT22;10891;49.350;19.386;2023-03-01T04:08:17;-6.70;99.90
21459;DHT22;10891;49.350;19.386;2023-03-01T04:10:47;-6.70;99.90
21459;DHT22;10891;49.350;19.386;2023-03-01T04:13:16;-6.70;99.90
21459;DHT22;10891;49.350;19.386;2023-03-01T04:15:45;-6.70;99.90
21459;DHT22;10891;49.350;19.386;2023-03-01T04:18:13;-6.70;99.90
21459;DHT22;10891;49.350;19.386;2023-03-01T04:20:41;-6.80;99.90
21459;DHT22;10891;49.350;19.386;2023-03-01T04:23:11;-6.90;99.90
21459;DHT22;10891;49.350;19.386;2023-03-01T04:25:42;-6.90;99.90
21459;DHT22;10891;49.350;19.386;2023-03-01T04:28:09;-6.90;99.90
21459;DHT22;10891;49.350;19.386;2023-03-01T04:30:37;-7.00;99.90
21459;DHT22;10891;49.350;19.386;2023-03-01T04:33:05;-6.90;99.90
21459;DHT22;10891;49.350;19.386;2023-03-01T04:35:32;-6.90;99.90
21459;DHT22;10891;49.350;19.386;2023-03-01T04:38:00;-6.90;99.90
21459;DHT22;10891;49.350;19.386;2023-03-01T04:40:27;-6.90;99.90
21459;DHT22;10891;49.350;19.386;2023-03-01T04:42:55;-6.80;99.90
21459;DHT22;10891;49.350;19.386;2023-03-01T04:45:22;-6.80;99.90
21459;DHT22;10891;49.350;19.386;2023-03-01T04:47:49;-6.80;99.90
21459;DHT22;10891;49.350;19.386;2023-03-01T04:50:18;-6.80;99.90
21459;DHT22;10891;49.350;19.386;2023-03-01T04:52:47;-6.80;99.90
21459;DHT22;10891;49.350;19.386;2023-03-01T04:55:14;-6.70;99.90
21459;DHT22;10891;49.350;19.386;2023-03-01T04:57:41;-6.70;99.90
21459;DHT22;10891;49.350;19.386;2023-03-01T05:00:13;-6.70;99.90
21459;DHT22;10891;49.350;19.386;2023-03-01T05:02:48;-6.70;99.90
21459;DHT22;10891;49.350;19.386;2023-03-01T05:05:19;-6.70;99.90
21459;DHT22;10891;49.350;19.386;2023-03-01T05:07:47;-6.70;99.90
21459;DHT22;10891;49.350;19.386;2023-03-01T05:10:14;-6.70;99.90
21459;DHT22;10891;49.350;19.386;2023-03-01T05:12:41;-6.80;99.90
21459;DHT22;10891;49.350;19.386;2023-03-01T05:15:10;-6.80;99.90
21459;DHT22;10891;49.350;19.386;2023-03-01T05:17:37;-6.80;99.90
21459;DHT22;10891;49.350;19.386;2023-03-01T05:20:04;-6.80;99.90
21459;DHT22;10891;49.350;19.386;2023-03-01T05:22:34;-6.90;99.90
21459;DHT22;10891;49.350;19.386;2023-03-01T05:25:01;-6.90;99.90
21459;DHT22;10891;49.350;19.386;2023-03-01T05:27:28;-6.90;99.90
21459;DHT22;10891;49.350;19.386;2023-03-01T05:29:55;-6.90;99.90
21459;DHT22;10891;49.350;19.386;2023-03-01T05:32:23;-6.90;99.90
21459;DHT22;10891;49.350;19.386;2023-03-01T05:34:50;-6.90;99.90
21459;DHT22;10891;49.350;19.386;2023-03-01T05:37:17;-6.90;99.90
21459;DHT22;10891;49.350;19.386;2023-03-01T05:39:45;-6.80;99.90
21459;DHT22;10891;49.350;19.386;2023-03-01T05:42:12;-6.70;99.90
21459;DHT22;10891;49.350;19.386;2023-03-01T05:44:38;-6.70;99.90
21459;DHT22;10891;49.350;19.386;2023-03-01T05:47:06;-6.80;99.90
21459;DHT22;10891;49.350;19.386;2023-03-01T05:49:34;-6.80;99.90
21459;DHT22;10891;49.350;19.386;2023-03-01T05:52:01;-6.80;99.90
21459;DHT22;10891;49.350;19.386;2023-03-01T05:54:29;-6.80;99.90
21459;DHT22;10891;49.350;19.386;2023-03-01T05:56:56;-6.80;99.90
21459;DHT22;10891;49.350;19.386;2023-03-01T05:59:23;-6.80;99.90
21459;DHT22;10891;49.350;19.386;2023-03-01T06:01:50;-6.80;99.90
21459;DHT22;10891;49.350;19.386;2023-03-01T06:04:17;-6.70;99.90
21459;DHT22;10891;49.350;19.386;2023-03-01T06:06:45;-6.60;99.90
21459;DHT22;10891;49.350;19.386;2023-03-01T06:09:12;-6.50;99.90
21459;DHT22;10891;49.350;19.386;2023-03-01T06:11:39;-6.40;99.90
21459;DHT22;10891;49.350;19.386;2023-03-01T06:14:08;-6.30;99.90
21459;DHT22;10891;49.350;19.386;2023-03-01T06:16:36;-6.20;99.90
21459;DHT22;10891;49.350;19.386;2023-03-01T06:19:03;-6.10;99.90
21459;DHT22;10891;49.350;19.386;2023-03-01T06:21:30;-6.00;99.90
21459;DHT22;10891;49.350;19.386;2023-03-01T06:23:58;-5.80;99.90
21459;DHT22;10891;49.350;19.386;2023-03-01T06:26:25;-5.80;99.90
21459;DHT22;10891;49.350;19.386;2023-03-01T06:28:53;-5.80;99.90
21459;DHT22;10891;49.350;19.386;2023-03-01T06:31:20;-5.70;99.90
21459;DHT22;10891;49.350;19.386;2023-03-01T06:33:47;-5.70;99.90
21459;DHT22;10891;49.350;19.386;2023-03-01T06:36:13;-5.60;99.90
21459;DHT22;10891;49.350;19.386;2023-03-01T06:38:44;-5.60;99.90
21459;DHT22;10891;49.350;19.386;2023-03-01T06:41:12;-5.50;99.90
21459;DHT22;10891;49.350;19.386;2023-03-01T06:43:39;-5.50;99.90
21459;DHT22;10891;49.350;19.386;2023-03-01T06:46:06;-5.50;99.90
21459;DHT22;10891;49.350;19.386;2023-03-01T06:48:33;-5.20;99.90
21459;DHT22;10891;49.350;19.386;2023-03-01T06:51:00;-5.10;99.90
21459;DHT22;10891;49.350;19.386;2023-03-01T06:53:28;-4.90;99.90
21459;DHT22;10891;49.350;19.386;2023-03-01T06:55:55;-4.80;99.90
21459;DHT22;10891;49.350;19.386;2023-03-01T06:58:23;-4.60;99.90
21459;DHT22;10891;49.350;19.386;2023-03-01T07:00:50;-4.50;99.90
21459;DHT22;10891;49.350;19.386;2023-03-01T07:03:17;-4.40;99.90
21459;DHT22;10891;49.350;19.386;2023-03-01T07:05:44;-4.30;99.90
21459;DHT22;10891;49.350;19.386;2023-03-01T07:08:11;-4.20;99.90
21459;DHT22;10891;49.350;19.386;2023-03-01T07:10:38;-4.20;99.90
21459;DHT22;10891;49.350;19.386;2023-03-01T07:13:05;-4.10;99.90
21459;DHT22;10891;49.350;19.386;2023-03-01T07:15:35;-4.00;99.90
21459;DHT22;10891;49.350;19.386;2023-03-01T07:18:04;-4.10;99.90
21459;DHT22;10891;49.350;19.386;2023-03-01T07:20:32;-4.00;99.90
21459;DHT22;10891;49.350;19.386;2023-03-01T07:22:58;-3.90;99.90
21459;DHT22;10891;49.350;19.386;2023-03-01T07:25:25;-3.90;99.90
21459;DHT22;10891;49.350;19.386;2023-03-01T07:27:53;-3.80;99.90
21459;DHT22;10891;49.350;19.386;2023-03-01T07:30:21;-3.70;99.90
21459;DHT22;10891;49.350;19.386;2023-03-01T07:32:49;-3.60;99.90
21459;DHT22;10891;49.350;19.386;2023-03-01T07:35:16;-3.50;99.90
21459;DHT22;10891;49.350;19.386;2023-03-01T07:37:44;-3.40;99.90
21459;DHT22;10891;49.350;19.386;2023-03-01T07:40:12;-3.20;99.90
21459;DHT22;10891;49.350;19.386;2023-03-01T07:42:40;-3.10;99.90
21459;DHT22;10891;49.350;19.386;2023-03-01T07:45:08;-3.10;99.90
21459;DHT22;10891;49.350;19.386;2023-03-01T07:47:36;-3.10;99.90
21459;DHT22;10891;49.350;19.386;2023-03-01T07:50:06;-3.20;99.90
21459;DHT22;10891;49.350;19.386;2023-03-01T07:52:33;-3.00;99.90
21459;DHT22;10891;49.350;19.386;2023-03-01T07:55:05;-2.80;99.90
21459;DHT22;10891;49.350;19.386;2023-03-01T07:57:32;-2.60;99.90
21459;DHT22;10891;49.350;19.386;2023-03-01T07:59:59;-2.50;99.90
21459;DHT22;10891;49.350;19.386;2023-03-01T08:02:26;-2.20;99.90
21459;DHT22;10891;49.350;19.386;2023-03-01T08:04:53;-2.10;99.90
21459;DHT22;10891;49.350;19.386;2023-03-01T08:07:21;-2.10;99.90
21459;DHT22;10891;49.350;19.386;2023-03-01T08:09:48;-2.00;99.90
21459;DHT22;10891;49.350;19.386;2023-03-01T08:12:15;-1.90;99.90
21459;DHT22;10891;49.350;19.386;2023-03-01T08:14:42;-1.70;99.90
21459;DHT22;10891;49.350;19.386;2023-03-01T08:17:09;-1.60;99.90
21459;DHT22;10891;49.350;19.386;2023-03-01T08:19:36;-1.40;99.90
21459;DHT22;10891;49.350;19.386;2023-03-01T08:22:03;-1.20;99.90
21459;DHT22;10891;49.350;19.386;2023-03-01T08:24:31;-1.00;99.90
21459;DHT22;10891;49.350;19.386;2023-03-01T08:26:59;-0.80;99.90
21459;DHT22;10891;49.350;19.386;2023-03-01T08:29:28;-0.80;99.90
21459;DHT22;10891;49.350;19.386;2023-03-01T08:31:54;-0.70;99.90
21459;DHT22;10891;49.350;19.386;2023-03-01T08:34:21;-0.60;99.90
21459;DHT22;10891;49.350;19.386;2023-03-01T08:36:48;-0.70;99.90
21459;DHT22;10891;49.350;19.386;2023-03-01T08:39:19;-0.50;99.90
21459;DHT22;10891;49.350;19.386;2023-03-01T08:41:47;-0.30;99.90
21459;DHT22;10891;49.350;19.386;2023-03-01T08:44:15;-0.10;99.90
21459;DHT22;10891;49.350;19.386;2023-03-01T08:46:43;0.10;99.90
21459;DHT22;10891;49.350;19.386;2023-03-01T08:49:13;0.20;99.90
21459;DHT22;10891;49.350;19.386;2023-03-01T08:51:41;0.30;99.90
21459;DHT22;10891;49.350;19.386;2023-03-01T08:54:11;0.40;99.90
21459;DHT22;10891;49.350;19.386;2023-03-01T08:56:40;0.50;99.90
21459;DHT22;10891;49.350;19.386;2023-03-01T08:59:09;0.70;99.90
21459;DHT22;10891;49.350;19.386;2023-03-01T09:01:36;0.70;99.90
21459;DHT22;10891;49.350;19.386;2023-03-01T09:04:04;0.80;99.90
21459;DHT22;10891;49.350;19.386;2023-03-01T09:06:31;0.90;99.90
21459;DHT22;10891;49.350;19.386;2023-03-01T09:08:59;1.00;99.90
21459;DHT22;10891;49.350;19.386;2023-03-01T09:11:28;1.00;99.90
21459;DHT22;10891;49.350;19.386;2023-03-01T09:13:55;1.20;99.90
21459;DHT22;10891;49.350;19.386;2023-03-01T09:16:25;1.30;99.90
21459;DHT22;10891;49.350;19.386;2023-03-01T09:18:54;1.50;99.90
21459;DHT22;10891;49.350;19.386;2023-03-01T09:21:22;1.60;99.90
21459;DHT22;10891;49.350;19.386;2023-03-01T09:23:49;1.60;99.90
21459;DHT22;10891;49.350;19.386;2023-03-01T09:26:17;1.80;99.90
21459;DHT22;10891;49.350;19.386;2023-03-01T09:28:45;1.80;99.90
21459;DHT22;10891;49.350;19.386;2023-03-01T09:31:14;2.00;99.90
21459;DHT22;10891;49.350;19.386;2023-03-01T09:33:45;2.20;99.90
21459;DHT22;10891;49.350;19.386;2023-03-01T09:36:15;2.30;99.90
21459;DHT22;10891;49.350;19.386;2023-03-01T09:38:42;2.40;99.90
21459;DHT22;10891;49.350;19.386;2023-03-01T09:41:11;2.50;99.90
21459;DHT22;10891;49.350;19.386;2023-03-01T09:43:49;2.70;99.90
21459;DHT22;10891;49.350;19.386;2023-03-01T09:46:22;2.80;99.90
21459;DHT22;10891;49.350;19.386;2023-03-01T09:48:53;2.90;99.90
21459;DHT22;10891;49.350;19.386;2023-03-01T09:51:26;2.90;99.90
21459;DHT22;10891;49.350;19.386;2023-03-01T09:53:53;2.90;99.90
21459;DHT22;10891;49.350;19.386;2023-03-01T09:56:29;2.90;99.90
21459;DHT22;10891;49.350;19.386;2023-03-01T09:59:05;2.70;99.90
21459;DHT22;10891;49.350;19.386;2023-03-01T10:01:40;2.80;99.90
21459;DHT22;10891;49.350;19.386;2023-03-01T10:04:26;2.70;99.90
21459;DHT22;10891;49.350;19.386;2023-03-01T10:07:14;2.80;99.90
21459;DHT22;10891;49.350;19.386;2023-03-01T10:09:45;3.20;99.90
21459;DHT22;10891;49.350;19.386;2023-03-01T10:12:15;3.60;99.90
21459;DHT22;10891;49.350;19.386;2023-03-01T10:14:48;3.60;99.90
21459;DHT22;10891;49.350;19.386;2023-03-01T10:17:25;3.70;99.90
21459;DHT22;10891;49.350;19.386;2023-03-01T10:19:56;3.30;99.90
21459;DHT22;10891;49.350;19.386;2023-03-01T10:22:28;3.00;99.90
21459;DHT22;10891;49.350;19.386;2023-03-01T10:24:58;3.30;99.90
21459;DHT22;10891;49.350;19.386;2023-03-01T10:27:29;3.40;99.90
21459;DHT22;10891;49.350;19.386;2023-03-01T10:30:09;3.60;99.90
21459;DHT22;10891;49.350;19.386;2023-03-01T10:32:41;3.90;99.90
21459;DHT22;10891;49.350;19.386;2023-03-01T10:35:21;3.90;99.90
21459;DHT22;10891;49.350;19.386;2023-03-01T10:38:03;3.80;99.90
21459;DHT22;10891;49.350;19.386;2023-03-01T10:40:31;3.70;99.90
21459;DHT22;10891;49.350;19.386;2023-03-01T10:42:59;3.90;99.90
21459;DHT22;10891;49.350;19.386;2023-03-01T10:45:31;3.80;99.90
21459;DHT22;10891;49.350;19.386;2023-03-01T10:48:12;3.90;99.90
21459;DHT22;10891;49.350;19.386;2023-03-01T10:50:42;4.00;99.90
21459;DHT22;10891;49.350;19.386;2023-03-01T10:53:32;4.00;99.90
21459;DHT22;10891;49.350;19.386;2023-03-01T10:56:02;3.80;99.90
21459;DHT22;10891;49.350;19.386;2023-03-01T10:58:31;4.10;99.90
21459;DHT22;10891;49.350;19.386;2023-03-01T11:01:00;4.30;99.90
21459;DHT22;10891;49.350;19.386;2023-03-01T11:03:29;4.30;99.90
21459;DHT22;10891;49.350;19.386;2023-03-01T11:06:02;4.50;99.90
21459;DHT22;10891;49.350;19.386;2023-03-01T11:08:31;4.70;99.90
21459;DHT22;10891;49.350;19.386;2023-03-01T11:11:13;4.50;99.90
21459;DHT22;10891;49.350;19.386;2023-03-01T11:13:51;4.60;99.90
21459;DHT22;10891;49.350;19.386;2023-03-01T11:16:27;4.70;99.90
21459;DHT22;10891;49.350;19.386;2023-03-01T11:19:15;4.60;99.90
21459;DHT22;10891;49.350;19.386;2023-03-01T11:21:51;4.40;99.90
21459;DHT22;10891;49.350;19.386;2023-03-01T11:24:26;5.00;99.90
21459;DHT22;10891;49.350;19.386;2023-03-01T11:26:55;4.60;99.90
21459;DHT22;10891;49.350;19.386;2023-03-01T11:29:29;4.50;99.90
21459;DHT22;10891;49.350;19.386;2023-03-01T11:32:02;4.90;99.90
21459;DHT22;10891;49.350;19.386;2023-03-01T11:34:42;4.70;99.90
21459;DHT22;10891;49.350;19.386;2023-03-01T11:37:16;4.50;99.90
21459;DHT22;10891;49.350;19.386;2023-03-01T11:39:54;4.50;99.90
21459;DHT22;10891;49.350;19.386;2023-03-01T11:42:30;4.60;99.90
21459;DHT22;10891;49.350;19.386;2023-03-01T11:45:08;4.60;99.90
21459;DHT22;10891;49.350;19.386;2023-03-01T11:47:52;4.80;99.90
21459;DHT22;10891;49.350;19.386;2023-03-01T11:50:28;4.80;99.90
21459;DHT22;10891;49.350;19.386;2023-03-01T11:53:11;4.90;99.90
21459;DHT22;10891;49.350;19.386;2023-03-01T11:55:57;5.00;99.90
21459;DHT22;10891;49.350;19.386;2023-03-01T11:58:52;5.00;99.90
21459;DHT22;10891;49.350;19.386;2023-03-01T12:01:32;4.80;99.90
21459;DHT22;10891;49.350;19.386;2023-03-01T12:07:29;5.00;99.90
21459;DHT22;10891;49.350;19.386;2023-03-01T12:10:19;5.10;99.90
21459;DHT22;10891;49.350;19.386;2023-03-01T12:13:07;5.10;99.90
21459;DHT22;10891;49.350;19.386;2023-03-01T12:15:58;5.20;99.90
21459;DHT22;10891;49.350;19.386;2023-03-01T12:18:54;5.20;99.90
21459;DHT22;10891;49.350;19.386;2023-03-01T12:21:30;5.20;99.90
21459;DHT22;10891;49.350;19.386;2023-03-01T12:24:36;5.10;99.90
21459;DHT22;10891;49.350;19.386;2023-03-01T12:27:23;5.00;99.90
21459;DHT22;10891;49.350;19.386;2023-03-01T12:29:58;5.10;99.90
21459;DHT22;10891;49.350;19.386;2023-03-01T12:32:40;5.20;99.90
21459;DHT22;10891;49.350;19.386;2023-03-01T12:35:34;5.10;99.90
21459;DHT22;10891;49.350;19.386;2023-03-01T12:38:13;5.30;99.90
21459;DHT22;10891;49.350;19.386;2023-03-01T12:41:06;5.40;99.90
21459;DHT22;10891;49.350;19.386;2023-03-01T12:43:46;5.80;99.90
21459;DHT22;10891;49.350;19.386;2023-03-01T12:46:28;5.80;99.90
21459;DHT22;10891;49.350;19.386;2023-03-01T12:49:04;5.80;99.90
21459;DHT22;10891;49.350;19.386;2023-03-01T12:51:35;5.60;99.90
21459;DHT22;10891;49.350;19.386;2023-03-01T12:54:11;5.70;99.90
21459;DHT22;10891;49.350;19.386;2023-03-01T12:56:41;6.00;99.90
21459;DHT22;10891;49.350;19.386;2023-03-01T12:59:17;5.90;99.90
21459;DHT22;10891;49.350;19.386;2023-03-01T13:01:51;6.10;99.90
21459;DHT22;10891;49.350;19.386;2023-03-01T13:04:34;6.20;99.50
21459;DHT22;10891;49.350;19.386;2023-03-01T13:07:15;6.10;99.60
21459;DHT22;10891;49.350;19.386;2023-03-01T13:09:50;6.20;99.10
21459;DHT22;10891;49.350;19.386;2023-03-01T13:12:52;6.20;99.90
21459;DHT22;10891;49.350;19.386;2023-03-01T13:15:35;6.40;99.90
21459;DHT22;10891;49.350;19.386;2023-03-01T13:18:11;6.20;98.60
21459;DHT22;10891;49.350;19.386;2023-03-01T13:20:53;6.20;99.00
21459;DHT22;10891;49.350;19.386;2023-03-01T13:23:27;6.30;99.20
21459;DHT22;10891;49.350;19.386;2023-03-01T13:26:04;6.60;99.90
21459;DHT22;10891;49.350;19.386;2023-03-01T13:28:54;6.50;99.20
21459;DHT22;10891;49.350;19.386;2023-03-01T13:37:27;6.40;99.60
21459;DHT22;10891;49.350;19.386;2023-03-01T13:39:56;6.60;99.60
21459;DHT22;10891;49.350;19.386;2023-03-01T13:42:42;6.40;99.00
21459;DHT22;10891;49.350;19.386;2023-03-01T13:45:34;6.70;99.50
21459;DHT22;10891;49.350;19.386;2023-03-01T13:48:09;6.70;99.40
21459;DHT22;10891;49.350;19.386;2023-03-01T13:50:45;6.60;98.80
21459;DHT22;10891;49.350;19.386;2023-03-01T13:53:18;6.60;99.30
21459;DHT22;10891;49.350;19.386;2023-03-01T13:55:48;6.40;98.40
21459;DHT22;10891;49.350;19.386;2023-03-01T13:58:21;6.50;99.00
21459;DHT22;10891;49.350;19.386;2023-03-01T14:00:55;6.60;98.70
21459;DHT22;10891;49.350;19.386;2023-03-01T14:03:23;6.80;98.80
21459;DHT22;10891;49.350;19.386;2023-03-01T14:06:05;6.90;98.50
21459;DHT22;10891;49.350;19.386;2023-03-01T14:08:37;6.90;98.20
21459;DHT22;10891;49.350;19.386;2023-03-01T14:14:27;6.90;97.40
21459;DHT22;10891;49.350;19.386;2023-03-01T14:17:05;6.90;98.10
21459;DHT22;10891;49.350;19.386;2023-03-01T14:19:37;7.00;98.10
21459;DHT22;10891;49.350;19.386;2023-03-01T14:22:13;7.00;97.80
21459;DHT22;10891;49.350;19.386;2023-03-01T14:24:49;7.00;98.30
21459;DHT22;10891;49.350;19.386;2023-03-01T14:27:17;7.00;98.40
21459;DHT22;10891;49.350;19.386;2023-03-01T14:29:54;6.90;98.00
21459;DHT22;10891;49.350;19.386;2023-03-01T14:32:24;7.00;98.20
21459;DHT22;10891;49.350;19.386;2023-03-01T14:34:52;7.00;98.50
21459;DHT22;10891;49.350;19.386;2023-03-01T14:37:22;7.00;98.80
21459;DHT22;10891;49.350;19.386;2023-03-01T14:39:52;6.90;98.70
21459;DHT22;10891;49.350;19.386;2023-03-01T14:42:21;6.60;99.20
21459;DHT22;10891;49.350;19.386;2023-03-01T14:44:51;6.50;99.30
21459;DHT22;10891;49.350;19.386;2023-03-01T14:47:26;6.60;99.70
21459;DHT22;10891;49.350;19.386;2023-03-01T14:49:58;6.40;99.60
21459;DHT22;10891;49.350;19.386;2023-03-01T14:52:31;6.10;99.80
21459;DHT22;10891;49.350;19.386;2023-03-01T14:55:04;6.10;99.90
21459;DHT22;10891;49.350;19.386;2023-03-01T14:57:31;6.00;99.80
21459;DHT22;10891;49.350;19.386;2023-03-01T15:00:00;5.90;99.90
21459;DHT22;10891;49.350;19.386;2023-03-01T15:02:31;5.90;99.90
21459;DHT22;10891;49.350;19.386;2023-03-01T15:05:02;5.80;99.90
21459;DHT22;10891;49.350;19.386;2023-03-01T15:07:33;5.70;99.90
21459;DHT22;10891;49.350;19.386;2023-03-01T15:10:03;5.60;99.50
21459;DHT22;10891;49.350;19.386;2023-03-01T15:12:38;5.50;99.60
21459;DHT22;10891;49.350;19.386;2023-03-01T15:15:34;5.40;99.80
21459;DHT22;10891;49.350;19.386;2023-03-01T15:18:04;5.30;99.90
21459;DHT22;10891;49.350;19.386;2023-03-01T15:20:33;5.10;99.90
21459;DHT22;10891;49.350;19.386;2023-03-01T15:23:02;5.10;99.90
21459;DHT22;10891;49.350;19.386;2023-03-01T15:25:32;5.00;99.90
21459;DHT22;10891;49.350;19.386;2023-03-01T15:28:01;4.90;99.90
21459;DHT22;10891;49.350;19.386;2023-03-01T15:30:32;4.80;99.90
21459;DHT22;10891;49.350;19.386;2023-03-01T15:33:25;4.70;99.90
21459;DHT22;10891;49.350;19.386;2023-03-01T15:35:54;4.50;99.90
21459;DHT22;10891;49.350;19.386;2023-03-01T15:38:31;4.40;99.90
21459;DHT22;10891;49.350;19.386;2023-03-01T15:41:01;4.30;99.90
21459;DHT22;10891;49.350;19.386;2023-03-01T15:43:41;4.20;99.90
21459;DHT22;10891;49.350;19.386;2023-03-01T15:46:20;4.10;99.90
21459;DHT22;10891;49.350;19.386;2023-03-01T15:48:51;4.00;99.90
21459;DHT22;10891;49.350;19.386;2023-03-01T15:51:23;3.90;99.90
21459;DHT22;10891;49.350;19.386;2023-03-01T15:53:55;3.80;99.90
21459;DHT22;10891;49.350;19.386;2023-03-01T15:56:24;3.70;99.90
21459;DHT22;10891;49.350;19.386;2023-03-01T15:58:51;3.60;99.90
21459;DHT22;10891;49.350;19.386;2023-03-01T16:01:18;3.50;99.90